Latest Coastal Weather Observations for Coffs Harbour Airport

IDN60701

Issued at 6:02 am EST Sunday 14 April 2024 (issued every 10 minutes, with the page automatically refreshed every 10 minutes)

About coastal observations | Map of coastal stations | Coastal observations for NSW | Marine services | Other Formats
Station Details ID: 059151 Name: COFFS HARBOUR AIRPORT Lat: -30.32 Lon: 153.12 Height: 3.5 m
Data from the previous 72 hours. | See also: Recent months at Coffs Harbour Airport
Date/Time
EST
Wind Sea
Height
m
Swell Vis
km
Cloud Weather Temp
°C
Press
MSL
hPa
Rain since
9am
mm
Dir  Spd
kts
Gust
kts
Height
m
Period
s
Dir
14/06:00am NW 3 5 - - - - 10 Cloudy - 17.5 1022.6 1.4
14/05:30am NW 4 6 - - - - 10 Cloudy - 18.0 1022.3 1.4
14/05:00am NW 8 9 - - - - 10 Cloudy - 18.2 1022.2 1.4
14/04:30am NW 8 11 - - - - 10 Cloudy - 18.1 1021.9 1.4
14/04:00am NW 8 10 - - - - 10 Cloudy - 17.7 1021.9 1.4
14/03:30am NW 7 9 - - - - 10 Cloudy - 17.7 1022.1 1.4
14/03:00am NW 7 9 - - - - 10 Cloudy Rain 17.6 1022.1 1.4
14/02:30am NW 7 9 - - - - 10 Cloudy - 17.6 1022.4 1.4
14/02:00am NW 8 10 - - - - 10 Cloudy - 17.7 1022.6 1.4
14/01:30am NNW 7 9 - - - - 10 Partly cloudy - 18.0 1022.8 1.2
14/01:00am NE 7 10 - - - - 10 Partly cloudy - 18.0 1022.8 1.0
14/12:30am NE 7 8 - - - - 10 Cloudy - 17.8 1022.9 1.0
14/12:00am NE 7 8 - - - - 10 Cloudy Showers 17.9 1022.8 0.8
 
Date/Time
EST
Wind Sea
Height
m
Swell Vis
km
Cloud Weather Temp
°C
Press
MSL
hPa
Rain since
9am
mm
Dir  Spd
kts
Gust
kts
Height
m
Period
s
Dir
13/11:30pm ENE 5 6 - - - - 10 Partly cloudy - 18.1 1022.9 0.8
13/11:00pm ENE 6 8 - - - - 10 Partly cloudy - 18.3 1023.3 0.4
13/10:30pm ENE 4 6 - - - - 10 Partly cloudy - 18.5 1023.3 0.0
13/10:00pm E 7 10 - - - - 10 Partly cloudy - 18.9 1023.1 0.0
13/09:30pm ESE 14 20 - - - - 10 Partly cloudy - 19.7 1022.9 0.0
13/09:12pm ESE 14 27 - - - - 10 Partly cloudy - 19.7 1022.7 0.0
13/09:00pm N 6 8 - - - - 10 Cloudy Thunderstorm 20.4 1022.9 0.0
13/08:30pm N 5 6 - - - - 10 Cloudy - 20.6 1022.3 0.0
13/08:00pm N 4 6 - - - - 10 Cloudy - 20.8 1021.8 0.0
13/07:30pm N 5 7 - - - - 10 Partly cloudy - 20.9 1021.6 0.0
13/07:00pm N 2 4 - - - - 10 Cloudy - 20.5 1021.5 0.0
13/06:30pm N 5 5 - - - - 10 Partly cloudy - 20.6 1020.8 0.0
13/06:00pm N 6 7 - - - - 10 Partly cloudy - 21.2 1020.2 0.0
13/05:30pm N 5 6 - - - - 10 Partly cloudy - 21.7 1020.1 0.0
13/05:00pm N 6 7 - - - - 10 Partly cloudy - 22.7 1019.8 0.0
13/04:30pm N 9 11 - - - - 10 Partly cloudy - 23.1 1019.5 0.0
13/04:00pm NNE 8 11 - - - - 10 - - 23.1 1019.4 0.0
13/03:30pm NNE 12 16 - - - - 10 Partly cloudy - 23.5 1018.9 0.0
13/03:00pm NNE 13 16 - - - - 10 Cloudy - 24.0 1019.1 0.0
13/02:30pm NE 13 17 - - - - 10 Partly cloudy - 23.6 1019.2 0.0
13/02:00pm NE 10 15 - - - - 10 Partly cloudy - 23.9 1019.3 0.0
13/01:30pm NE 9 13 - - - - 10 Partly cloudy - 24.2 1019.6 0.0
13/01:00pm NE 9 12 - - - - 10 Partly cloudy - 24.3 1019.7 0.0
13/12:30pm NE 11 15 - - - - 10 Partly cloudy - 24.6 1019.8 0.0
13/12:00pm ENE 10 14 - - - - 10 Mostly cloudy - 24.6 1020.2 0.0
13/11:30am WNW 3 7 - - - - 10 - - 26.4 1020.6 0.0
13/11:00am NW 5 11 - - - - 10 - - 26.3 1020.9 0.0
13/10:30am N 7 11 - - - - 10 - - 25.6 1021.1 0.0
13/10:00am NNW 8 12 - - - - 10 - - 24.7 1021.3 0.0
13/09:30am NNW 7 11 - - - - 10 - - 24.5 1021.4 0.0
13/09:00am WSW 6 8 - - - - 10 - - 23.6 1021.7 0.0
13/08:30am WSW 7 9 - - - - 10 - - 22.4 1021.7 0.0
13/08:00am WSW 7 9 - - - - 10 - - 21.1 1021.6 0.0
13/07:30am SW 5 6 - - - - 10 - - 19.5 1021.2 0.0
13/07:00am SW 4 6 - - - - 10 - - 17.8 1020.9 0.0
13/06:30am SW 6 7 - - - - 10 - - 16.9 1020.6 0.0
13/06:00am SSW 6 7 - - - - 10 - - 16.2 1020.4 0.0
13/05:30am SSW 5 7 - - - - 10 - - 15.9 1020.4 0.0
13/05:12am ESE 3 6 - - - - 10 - - 15.3 1020.3 0.0
13/05:00am CALM 0 0 - - - - 5 - - 15.3 1020.2 0.0
13/04:59am CALM 0 0 - - - - 6 - - 15.2 1020.2 0.0
13/04:54am CALM 0 0 - - - - 10 - - 14.9 1020.2 0.0
13/04:33am CALM 0 0 - - - - 5 - - 14.7 1020.1 0.0
13/04:30am CALM 0 0 - - - - 10 - - 14.7 1020.1 0.0
13/04:08am SE 4 4 - - - - 10 - - 15.2 1020.0 0.0
13/04:00am SE 4 4 - - - - 7 - - 15.5 1019.9 0.0
13/03:54am SE 4 4 - - - - 6 - - 15.6 1019.9 0.0
13/03:41am SE 3 4 - - - - 10 - - 15.2 1020.0 0.0
13/03:30am SE 4 5 - - - - 5 - - 15.6 1019.8 0.0
13/03:15am SE 1 4 - - - - 5 - - 15.3 1019.9 0.0
13/03:01am CALM 0 3 - - - - 10 - - 15.8 1019.8 0.0
13/03:00am SE 1 3 - - - - 10 - - 15.8 1019.8 0.0
13/02:42am SE 3 4 - - - - 6 - - 15.5 1019.8 0.0
13/02:30am CALM 0 0 - - - - 10 - - 15.6 1019.8 0.0
13/02:23am CALM 0 0 - - - - 10 Partly cloudy - 15.9 1019.8 0.0
13/02:06am SE 3 4 - - - - 5 Partly cloudy - 16.3 1019.9 0.0
13/02:00am SE 3 4 - - - - 10 Partly cloudy - 16.3 1020.0 0.0
13/01:30am CALM 0 0 - - - - 10 Partly cloudy - 17.3 1020.1 0.0
13/01:00am ESE 4 5 - - - - 10 Cloudy - 17.6 1020.6 0.0
13/12:30am SE 5 6 - - - - 10 Cloudy - 17.6 1020.6 0.0
13/12:00am CALM 0 4 - - - - 10 - - 16.2 1020.6 0.0
 
Date/Time
EST
Wind Sea
Height
m
Swell Vis
km
Cloud Weather Temp
°C
Press
MSL
hPa
Rain since
9am
mm
Dir  Spd
kts
Gust
kts
Height
m
Period
s
Dir
12/11:30pm CALM 0 0 - - - - 10 - - 16.9 1020.7 0.0
12/11:00pm CALM 0 0 - - - - 10 Cloudy - 17.5 1020.8 0.0
12/10:30pm CALM 0 0 - - - - 10 Partly cloudy - 17.0 1020.8 0.0
12/10:00pm CALM 0 0 - - - - 10 - - 17.0 1020.8 0.0
12/09:30pm ESE 2 4 - - - - 10 - - 17.8 1020.9 0.0
12/09:00pm SE 2 4 - - - - 10 Mostly clear - 18.1 1021.0 0.0
12/08:30pm SE 4 5 - - - - 10 Partly cloudy - 18.5 1020.8 0.0
12/08:00pm SE 4 5 - - - - 10 Partly cloudy - 19.3 1020.6 0.0
12/07:30pm ESE 2 4 - - - - 10 Partly cloudy - 18.8 1020.2 0.0
12/07:00pm ESE 5 6 - - - - 10 Partly cloudy - 20.2 1020.0 0.0
12/06:30pm ESE 6 8 - - - - 10 Partly cloudy - 20.8 1019.6 0.0
12/06:00pm ESE 7 9 - - - - 10 Mostly clear - 20.8 1019.3 0.0
12/05:30pm SE 9 11 - - - - 10 Partly cloudy - 21.4 1019.1 0.0
12/05:00pm SE 7 10 - - - - 10 Partly cloudy - 22.4 1019.0 0.0
12/04:30pm SSE 8 12 - - - - 10 Partly cloudy - 22.2 1019.0 0.0
12/04:00pm SSE 9 13 - - - - 10 - - 23.7 1018.7 0.0
12/03:30pm SSE 9 14 - - - - 10 - - 23.8 1018.7 0.0
12/03:00pm SSE 9 12 - - - - 10 - - 24.0 1018.7 0.0
12/02:30pm SSE 8 11 - - - - 10 - - 24.3 1018.9 0.0
12/02:00pm SSE 9 11 - - - - 10 - - 24.1 1019.1 0.0
12/01:30pm SSE 9 12 - - - - 10 - - 24.1 1019.2 0.0
12/01:00pm SSE 10 13 - - - - 10 - - 24.0 1019.3 0.0
12/12:30pm SSE 10 13 - - - - 10 - - 23.8 1019.7 0.0
12/12:00pm SSE 9 12 - - - - 10 - - 24.1 1020.2 0.0
12/11:30am S 11 14 - - - - 10 Partly cloudy - 24.2 1020.6 0.0
12/11:00am SSW 6 10 - - - - 10 Partly cloudy - 23.4 1020.9 0.0
12/10:30am SW 8 15 - - - - 10 Partly cloudy - 23.7 1021.2 0.0
12/10:00am SW 9 15 - - - - 10 - - 23.4 1021.3 0.0
12/09:30am SW 13 17 - - - - 10 - - 22.8 1021.3 0.0
12/09:00am SW 11 18 - - - - 10 - - 22.6 1021.3 0.0
12/08:30am SW 9 13 - - - - 10 Partly cloudy - 21.3 1021.1 0.0
12/08:00am SW 8 10 - - - - 10 Partly cloudy - 20.3 1021.0 0.0
12/07:30am SW 7 10 - - - - 10 Partly cloudy - 19.2 1020.7 0.0
12/07:00am SW 6 8 - - - - 10 Partly cloudy - 17.2 1020.4 0.0
12/06:30am SW 7 9 - - - - 10 - - 17.1 1020.1 0.0
12/06:00am WSW 7 9 - - - - 10 - - 17.6 1019.8 0.0
12/05:30am SW 9 13 - - - - 10 Partly cloudy - 18.2 1019.4 0.0
12/05:00am WSW 9 13 - - - - 10 Cloudy - 18.6 1019.4 0.0
12/04:30am WSW 8 11 - - - - 10 Partly cloudy - 18.4 1019.4 0.0
12/04:00am SW 7 11 - - - - 10 Partly cloudy - 18.3 1019.4 0.0
12/03:30am SW 11 14 - - - - 10 Cloudy - 18.9 1019.4 0.0
12/03:00am SW 10 14 - - - - 10 Cloudy - 18.8 1019.2 0.0
12/02:30am WSW 9 11 - - - - 10 Partly cloudy - 18.4 1019.3 0.0
12/02:00am SW 8 12 - - - - 10 Partly cloudy - 18.5 1019.6 0.0
12/01:30am SW 9 14 - - - - 10 Partly cloudy - 18.6 1019.8 0.0
12/01:00am WSW 9 13 - - - - 10 Partly cloudy - 18.6 1019.9 0.0
12/12:30am WSW 11 15 - - - - 10 Partly cloudy - 18.9 1020.1 0.0
12/12:00am SW 10 14 - - - - 10 Mostly cloudy - 18.7 1020.2 0.0
 
Date/Time
EST
Wind Sea
Height
m
Swell Vis
km
Cloud Weather Temp
°C
Press
MSL
hPa
Rain since
9am
mm
Dir  Spd
kts
Gust
kts
Height
m
Period
s
Dir
11/11:30pm SW 9 14 - - - - 10 Partly cloudy - 18.9 1020.2 0.0
11/11:00pm WSW 9 15 - - - - 10 Cloudy - 19.5 1020.2 0.0
11/10:30pm WSW 9 13 - - - - 10 Cloudy - 19.5 1020.3 0.0
11/10:00pm WSW 9 13 - - - - 10 Cloudy - 19.5 1020.4 0.0
11/09:30pm W 10 15 - - - - 10 Partly cloudy - 19.4 1020.4 0.0
11/09:00pm WSW 10 14 - - - - 10 Mostly cloudy - 19.4 1020.2 0.0
11/08:30pm WSW 9 12 - - - - 10 Partly cloudy - 19.2 1020.0 0.0
11/08:00pm SW 11 20 - - - - 10 Partly cloudy - 19.9 1019.8 0.0
11/07:30pm S 16 21 - - - - 10 Partly cloudy - 21.5 1019.6 0.0
11/07:00pm S 15 20 - - - - 10 - - 21.9 1019.1 0.0
11/06:30pm S 15 20 - - - - 10 Partly cloudy - 22.2 1018.9 0.0
11/06:00pm S 15 19 - - - - 10 Mostly clear - 22.2 1018.6 0.0
11/05:30pm S 15 19 - - - - 10 - - 22.4 1018.3 0.0
11/05:00pm S 15 18 - - - - 10 Partly cloudy - 23.0 1017.9 0.0
11/04:30pm S 14 18 - - - - 10 - - 23.5 1017.6 0.0
11/04:00pm S 14 18 - - - - 10 - - 24.0 1017.4 0.0
11/03:30pm S 15 20 - - - - 10 - - 24.1 1017.1 0.0
11/03:00pm S 16 22 - - - - 10 - - 24.4 1017.1 0.0
11/02:30pm S 15 19 - - - - 10 - - 24.8 1017.0 0.0
11/02:00pm S 14 20 - - - - 10 - - 24.8 1017.1 0.0
11/01:30pm S 15 18 - - - - 10 - - 25.0 1017.0 0.0
11/01:00pm S 15 19 - - - - 10 - - 25.1 1017.1 0.0
11/12:30pm S 13 18 - - - - 10 - - 24.8 1017.2 0.0
11/12:00pm S 14 18 - - - - 10 - - 25.0 1017.4 0.0
11/11:30am SSW 13 19 - - - - 10 - - 24.6 1017.8 0.0
11/11:00am SW 15 19 - - - - 10 - - 24.0 1018.0 0.0
11/10:30am SSW 14 20 - - - - 10 - - 23.5 1018.2 0.0
11/10:00am SW 16 22 - - - - 10 - - 22.8 1018.1 0.0
11/09:30am SW 16 20 - - - - 10 Partly cloudy - 22.3 1018.1 0.0
11/09:00am SW 13 17 - - - - 10 Mostly cloudy - 22.0 1018.1 0.0
11/08:30am SW 13 16 - - - - 10 Cloudy - 21.9 1018.0 0.0
11/08:00am SW 10 14 - - - - 10 Partly cloudy - 21.1 1017.8 0.0
11/07:30am WSW 8 12 - - - - 10 - - 20.0 1017.4 0.0
11/07:00am WSW 7 9 - - - - 10 Partly cloudy - 19.1 1017.3 0.0
11/06:30am SW 8 11 - - - - 10 Partly cloudy - 18.4 1017.2 0.0

Other formats

Comma delimited format used in spreadsheet applications
http://www.bom.gov.au/fwo/IDN60701/IDN60701.95729.axf

JavaScript Object Notation format (JSON) in row-major order
http://www.bom.gov.au/fwo/IDN60701/IDN60701.95729.json

Data quality

Most of these data are generated automatically and are frequently updated. Quality checks on data are not normally performed. It is possible for incorrect values to appear. Refer to information at About Latest Weather Observations and please check the disclaimer before using these data.